Accueil
METAR-TAF:

METAR-TAF

Aéroports :

Aéroport de Žilina

Žilina, Slovaquie

latitude: 49-14N, longitude: 018-36-49E, altitude: 312 m

Observation

Le bulletin a été fait il y a 17 minutes, à 18:00 UTC
Vent 2 kt de direction variable
Température 12°C
Humidité 94%
Pression 1015 hPa
Visibilité 10 km ou plus
Ciel couvert à une hauteur de 3600 ft

METAR: LZZI 231800Z VRB02KT 9999 OVC036 12/11 Q1015

Heure: 20:17 (18:17 UTC)

Prévision

Le bulletin a été fait il y a 1 heure et 17 minutes, à 17:00 UTC
Prévision valable du 23 à 18 UTC au 24 à 03 UTC
Vent 4 kt de sud-ouest
Visibilité 10 km ou plus
Nuages épars à une hauteur de 3000 ft
Evoluant progressivement
du 23 à 22 UTC au 24 à 00 UTC
Vent 8 kt de ouest/sud-ouest

TAF: LZZI 231700Z 2318/2403 23004KT 9999 SCT030 BECMG 2322/2400 25008KT

Observations et prévisions météorologiques de plus de 4000 aéroports (messages METAR et TAF).

Les stations disponibles sont représentées par des disques jaunes et rouges sur la carte.

Passer la souris dessus pour voir le nom de la station.

Cliquer dessus pour voir les observations et prévisions météorologiques.

Pour changer de carte: cliquez sur les boutons verts avec une croix noire pour zoomer, sur le bouton vert avec un tiret pour effectuer un zoom arrière, ou sur les flèches vertes pour les cartes adjacentes.


METAR-TAF: